Time;durP1;ratioP1;P1;durP2;ratioP2;P2;SDS_P1;SDS_P2;PMS_P1;PMS_P2;Temp;Humidity;BMP_temperature;BMP_pressure;BME280_temperature;BME280_humidity;BME280_pressure;Samples;Min_cycle;Max_cycle;Signal;HPM_P1;HPM_P2
2021/03/17 00:00:25;;;;;;;126.57;60.97;;;;;;;3.60;65.45;99893.31;5079708;28;20047;-71
2021/03/17 00:02:52;;;;;;;81.57;45.13;;;;;;;3.62;65.13;99890.63;5083040;28;20098;-67
2021/03/17 00:05:20;;;;;;;74.72;40.78;;;;;;;3.64;65.30;99884.41;5082800;28;20024;-71
2021/03/17 00:07:47;;;;;;;92.88;44.97;;;;;;;3.69;65.38;99889.41;5085223;28;20092;-71
2021/03/17 00:10:14;;;;;;;85.03;48.47;;;;;;;3.68;65.18;99885.09;5081757;28;20084;-71
2021/03/17 00:12:41;;;;;;;85.68;49.35;;;;;;;3.69;64.98;99891.16;5085987;28;20098;-69
2021/03/17 00:15:09;;;;;;;75.35;46.03;;;;;;;3.71;64.90;99894.53;5088884;28;20044;-69
2021/03/17 00:17:35;;;;;;;74.20;42.03;;;;;;;3.66;65.25;99888.72;5087002;28;20052;-72
2021/03/17 00:20:05;;;;;;;66.88;40.50;;;;;;;3.66;65.29;99891.31;5084482;28;20123;-74
2021/03/17 00:22:31;;;;;;;71.80;43.10;;;;;;;3.61;65.25;99894.97;5085192;28;20058;-70
2021/03/17 00:24:58;;;;;;;62.75;38.40;;;;;;;3.55;65.67;99897.91;5088296;28;20103;-70
2021/03/17 00:27:24;;;;;;;68.68;37.97;;;;;;;3.52;65.68;99892.00;5088061;28;20068;-71
2021/03/17 00:29:54;;;;;;;63.78;41.78;;;;;;;3.45;65.67;99887.06;5086449;28;20051;-71
2021/03/17 00:32:20;;;;;;;60.70;37.15;;;;;;;3.37;66.03;99897.03;5088005;28;20044;-69
2021/03/17 00:34:46;;;;;;;61.13;37.80;;;;;;;3.27;66.65;99894.94;5088669;28;20033;-72
2021/03/17 00:37:13;;;;;;;61.60;38.47;;;;;;;3.25;66.40;99895.84;5083508;28;20044;-69
2021/03/17 00:39:39;;;;;;;63.10;38.58;;;;;;;3.17;66.69;99900.59;5085845;28;20092;-68
2021/03/17 00:42:06;;;;;;;64.00;41.40;;;;;;;3.15;66.83;99897.22;5085792;28;20138;-69
2021/03/17 00:44:32;;;;;;;59.47;40.08;;;;;;;3.13;66.66;99893.81;5086525;28;20041;-69
2021/03/17 00:47:01;;;;;;;50.97;34.35;;;;;;;3.10;66.77;99904.44;5085958;28;20049;-70
2021/03/17 00:49:27;;;;;;;55.05;35.00;;;;;;;3.04;66.97;99896.88;5085104;28;20102;-69
2021/03/17 00:51:56;;;;;;;60.67;37.17;;;;;;;3.00;67.32;99897.94;5087901;28;20116;-68
2021/03/17 00:54:23;;;;;;;59.60;38.80;;;;;;;2.98;67.09;99894.56;5088263;28;20037;-69
2021/03/17 00:56:49;;;;;;;60.05;40.33;;;;;;;2.91;67.36;99898.38;5085813;28;20083;-71
2021/03/17 00:59:16;;;;;;;63.90;40.15;;;;;;;2.92;67.37;99900.06;5068757;28;20045;-69
2021/03/17 01:01:42;;;;;;;61.88;39.33;;;;;;;2.89;67.37;99901.06;5085031;28;20037;-71
2021/03/17 01:04:10;;;;;;;59.58;37.00;;;;;;;2.86;67.82;99901.19;5066064;28;20045;-70
2021/03/17 01:06:36;;;;;;;58.58;39.67;;;;;;;2.86;67.51;99899.44;5084796;28;20113;-68
2021/03/17 01:09:04;;;;;;;58.50;34.08;;;;;;;2.81;67.79;99893.59;5084616;28;20025;-70
2021/03/17 01:11:30;;;;;;;65.68;36.35;;;;;;;2.79;67.38;99897.16;5085887;28;20579;-70
2021/03/17 01:13:57;;;;;;;66.07;42.10;;;;;;;2.74;67.53;99900.00;5082551;28;20085;-68
2021/03/17 01:16:23;;;;;;;61.65;36.30;;;;;;;2.71;67.65;99897.53;5086596;28;20072;-68
2021/03/17 01:18:50;;;;;;;64.95;38.75;;;;;;;2.72;67.68;99896.63;5085419;28;20063;-69
2021/03/17 01:21:17;;;;;;;67.10;37.78;;;;;;;2.68;67.79;99895.91;5086524;28;20041;-70
2021/03/17 01:23:44;;;;;;;72.32;38.20;;;;;;;2.64;68.04;99896.13;5086137;28;20068;-69
2021/03/17 01:26:10;;;;;;;66.45;40.92;;;;;;;2.61;67.67;99901.47;5086872;28;20069;-70
2021/03/17 01:28:36;;;;;;;59.25;36.42;;;;;;;2.59;67.63;99900.69;5086190;28;20048;-69
2021/03/17 01:31:03;;;;;;;71.07;41.05;;;;;;;2.57;67.93;99905.13;5086339;28;20037;-71
2021/03/17 01:33:31;;;;;;;65.90;38.50;;;;;;;2.52;67.73;99907.97;5087650;28;20054;-69
2021/03/17 01:35:59;;;;;;;65.90;40.75;;;;;;;2.49;67.93;99906.31;5084615;28;20182;-69
2021/03/17 01:38:27;;;;;;;70.00;42.50;;;;;;;2.45;67.72;99896.94;5084338;28;20083;-71
2021/03/17 01:40:55;;;;;;;63.72;41.78;;;;;;;2.39;68.32;99897.22;5074592;28;20047;-67
2021/03/17 01:43:23;;;;;;;63.60;36.15;;;;;;;2.39;67.95;99897.22;5067478;28;20147;-69
2021/03/17 01:45:50;;;;;;;67.13;40.00;;;;;;;2.38;67.63;99900.75;5067687;28;20045;-68
2021/03/17 01:48:17;;;;;;;65.82;37.00;;;;;;;2.37;67.99;99898.19;5065999;28;20786;-69
2021/03/17 01:50:45;;;;;;;79.20;43.80;;;;;;;2.34;68.24;99896.59;5068299;28;20056;-69
2021/03/17 01:53:14;;;;;;;65.97;40.10;;;;;;;2.32;67.93;99898.38;5069809;28;20048;-70
2021/03/17 01:55:44;;;;;;;66.68;39.85;;;;;;;2.31;68.12;99901.09;5069885;28;20044;-69
2021/03/17 01:58:11;;;;;;;67.30;43.65;;;;;;;2.27;68.18;99898.63;5070535;28;20059;-68
2021/03/17 02:00:39;;;;;;;65.97;41.78;;;;;;;2.22;68.39;99900.56;5078552;28;20151;-69
2021/03/17 02:03:07;;;;;;;71.30;46.65;;;;;;;2.18;68.68;99905.97;5072158;28;20054;-69
2021/03/17 02:05:39;;;;;;;60.58;37.55;;;;;;;2.18;68.63;99905.97;5072958;28;20045;-67
2021/03/17 02:08:08;;;;;;;62.15;39.03;;;;;;;2.12;68.94;99903.63;5072181;28;20044;-69
2021/03/17 02:10:37;;;;;;;65.63;37.28;;;;;;;2.14;68.41;99910.47;5073074;28;20049;-68
2021/03/17 02:13:19;;;;;;;74.68;44.65;;;;;;;2.08;68.82;99908.13;5071656;28;20050;-71
2021/03/17 02:16:00;;;;;;;77.03;45.05;;;;;;;2.07;68.71;99920.31;5072652;28;20056;-70
2021/03/17 02:18:36;;;;;;;68.05;42.53;;;;;;;2.02;68.89;99913.63;5054022;28;20052;-72
2021/03/17 02:21:37;;;;;;;65.13;39.28;;;;;;;2.03;69.03;99912.69;5073854;28;20049;-69
2021/03/17 02:24:13;;;;;;;60.75;36.50;;;;;;;2.01;69.19;99907.53;5071709;28;20074;-68
2021/03/17 02:27:11;;;;;;;66.93;37.78;;;;;;;1.99;69.21;99914.56;5074509;28;20068;-70
2021/03/17 02:30:18;;;;;;;61.17;37.33;;;;;;;2.02;69.08;99909.25;5078678;28;20114;-69
2021/03/17 02:33:30;;;;;;;74.63;44.30;;;;;;;1.97;69.02;99916.41;5077393;28;20060;-69
2021/03/17 02:36:10;;;;;;;69.80;41.05;;;;;;;1.91;68.81;99917.53;4997207;28;20115;-71
2021/03/17 02:38:40;;;;;;;66.28;40.70;;;;;;;1.84;69.24;99912.63;4994061;28;20062;-69
2021/03/17 02:41:07;;;;;;;63.35;36.90;;;;;;;1.88;69.23;99915.03;4992637;28;20046;-67
2021/03/17 02:43:41;;;;;;;67.55;41.75;;;;;;;1.82;69.56;99911.81;5001220;28;20060;-70
2021/03/17 02:46:11;;;;;;;70.22;41.50;;;;;;;1.79;69.70;99912.81;5003585;28;20056;-68
2021/03/17 02:48:43;;;;;;;62.97;31.92;;;;;;;1.80;69.35;99916.25;4990772;28;20715;-69
2021/03/17 02:51:18;;;;;;;68.45;45.40;;;;;;;1.75;69.57;99910.38;4992562;28;20515;-68
2021/03/17 02:53:45;;;;;;;76.35;42.05;;;;;;;1.74;69.41;99913.94;4976169;28;20050;-68
2021/03/17 02:56:13;;;;;;;62.85;37.45;;;;;;;1.74;69.39;99914.75;4993363;28;20109;-74
2021/03/17 02:58:44;;;;;;;66.55;40.58;;;;;;;1.67;69.89;99919.38;4990901;28;20481;-71
2021/03/17 03:01:15;;;;;;;63.53;37.78;;;;;;;1.71;69.32;99923.56;4992623;28;20185;-70
2021/03/17 03:03:43;;;;;;;68.50;39.92;;;;;;;1.68;69.46;99921.06;4992202;28;20407;-72
2021/03/17 03:06:12;;;;;;;70.22;41.03;;;;;;;1.69;69.66;99932.31;4992678;28;20042;-67
2021/03/17 03:08:44;;;;;;;66.10;42.97;;;;;;;1.68;69.38;99926.28;4989669;28;20404;-69
2021/03/17 03:11:13;;;;;;;71.93;39.97;;;;;;;1.66;69.57;99925.50;5068958;28;20064;-68
2021/03/17 03:13:39;;;;;;;72.25;38.70;;;;;;;1.65;69.36;99921.19;5067343;28;20048;-71
2021/03/17 03:16:07;;;;;;;73.25;43.85;;;;;;;1.60;69.82;99928.34;5066513;28;20503;-69
2021/03/17 03:18:35;;;;;;;70.55;41.60;;;;;;;1.62;69.35;99931.75;5066764;28;20044;-70
2021/03/17 03:21:02;;;;;;;66.78;38.00;;;;;;;1.59;69.61;99937.06;5066054;28;20052;-70
2021/03/17 03:23:30;;;;;;;67.25;35.63;;;;;;;1.61;69.35;99937.00;5066003;28;20044;-75
2021/03/17 03:25:58;;;;;;;66.47;36.78;;;;;;;1.60;69.23;99937.91;5067963;28;20629;-70
2021/03/17 03:28:24;;;;;;;69.80;38.28;;;;;;;1.57;69.28;99938.03;5068583;28;20051;-69
2021/03/17 03:30:55;;;;;;;76.55;44.22;;;;;;;1.56;69.75;99942.41;5069049;28;20078;-71
2021/03/17 03:33:22;;;;;;;69.10;40.25;;;;;;;1.55;69.52;99943.31;5068636;28;20103;-69
2021/03/17 03:35:49;;;;;;;74.07;38.60;;;;;;;1.55;69.39;99945.94;5068196;28;20066;-75
2021/03/17 03:38:15;;;;;;;68.22;35.75;;;;;;;1.58;69.23;99950.97;5065599;28;20041;-71
2021/03/17 03:40:43;;;;;;;84.28;44.10;;;;;;;1.57;69.21;99943.22;5067522;28;20681;-69
2021/03/17 03:43:11;;;;;;;88.25;41.65;;;;;;;1.56;69.13;99946.75;5068609;28;20460;-69
2021/03/17 03:45:39;;;;;;;84.85;41.65;;;;;;;1.55;69.31;99948.53;5068919;28;20056;-70
2021/03/17 03:48:06;;;;;;;86.10;42.78;;;;;;;1.54;69.43;99949.41;5068331;28;20048;-68
2021/03/17 03:50:35;;;;;;;75.43;44.15;;;;;;;1.51;69.23;99946.94;5069725;28;20052;-68
2021/03/17 03:53:10;;;;;;;82.88;44.58;;;;;;;1.48;69.16;99949.69;5068755;28;20080;-69
2021/03/17 03:55:47;;;;;;;77.13;45.80;;;;;;;1.45;69.59;99949.78;5069224;28;20101;-69
2021/03/17 03:58:18;;;;;;;76.90;43.92;;;;;;;1.44;69.57;99950.69;5068520;28;20044;-70
2021/03/17 04:00:46;;;;;;;72.32;43.42;;;;;;;1.40;69.53;99956.94;5068606;28;20090;-68
2021/03/17 04:03:13;;;;;;;91.35;45.70;;;;;;;1.40;69.45;99959.53;5068945;28;20048;-69
2021/03/17 04:05:41;;;;;;;85.22;48.88;;;;;;;1.36;70.08;99956.19;5069159;28;20045;-70
2021/03/17 04:08:12;;;;;;;71.63;38.97;;;;;;;1.39;69.51;99965.63;5066939;28;20040;-69
2021/03/17 04:10:40;;;;;;;83.82;49.45;;;;;;;1.36;69.83;99966.59;5068279;28;20047;-70
2021/03/17 04:13:09;;;;;;;67.85;41.25;;;;;;;1.41;69.76;99964.69;5067692;28;20499;-70
2021/03/17 04:15:38;;;;;;;77.22;46.97;;;;;;;1.42;70.08;99962.91;5067459;28;20076;-70
2021/03/17 04:18:10;;;;;;;109.32;59.47;;;;;;;1.53;69.70;99968.53;5066438;28;20068;-69
2021/03/17 04:20:41;;;;;;;161.65;104.88;;;;;;;1.60;69.47;99971.75;5067051;28;20056;-69
2021/03/17 04:23:10;;;;;;;135.38;83.78;;;;;;;1.75;69.51;99973.75;5067378;28;20427;-68
2021/03/17 04:25:41;;;;;;;105.45;64.53;;;;;;;1.82;69.54;99971.72;5066644;28;20071;-68
2021/03/17 04:28:14;;;;;;;92.68;56.60;;;;;;;1.95;68.90;99970.31;5066129;28;20487;-70
2021/03/17 04:30:41;;;;;;;100.20;66.40;;;;;;;1.93;69.39;99969.56;5066089;28;20052;-69
2021/03/17 04:33:08;;;;;;;80.55;53.55;;;;;;;1.90;69.75;99972.28;5064433;28;20041;-67
2021/03/17 04:35:34;;;;;;;74.80;45.10;;;;;;;1.95;69.97;99970.31;5063910;28;20048;-68
2021/03/17 04:38:01;;;;;;;70.97;54.92;;;;;;;1.95;69.74;99965.13;5062126;28;20405;-67
2021/03/17 04:40:29;;;;;;;72.20;52.00;;;;;;;1.98;69.60;99964.13;5061927;28;20115;-71
2021/03/17 04:42:58;;;;;;;78.07;44.15;;;;;;;1.96;70.17;99972.00;5064492;28;20460;-69
2021/03/17 04:45:25;;;;;;;71.07;48.20;;;;;;;1.98;69.97;99970.22;5062538;28;20056;-67
2021/03/17 04:47:53;;;;;;;67.82;41.33;;;;;;;2.00;70.10;99988.34;5063061;28;20114;-68
2021/03/17 04:50:23;;;;;;;68.00;45.17;;;;;;;2.03;69.82;99980.41;5062201;28;20045;-71
2021/03/17 04:52:50;;;;;;;73.75;42.83;;;;;;;2.05;69.71;99976.84;5063357;28;20045;-67
2021/03/17 04:55:17;;;;;;;73.07;47.65;;;;;;;2.04;70.18;99974.31;5061457;28;20049;-69
2021/03/17 04:57:45;;;;;;;73.70;42.03;;;;;;;1.98;70.60;99990.19;5062975;28;20067;-67
2021/03/17 05:00:13;;;;;;;71.95;46.58;;;;;;;2.02;70.26;99992.59;5066114;28;20133;-68
2021/03/17 05:02:47;;;;;;;63.33;39.50;;;;;;;2.03;70.28;99989.06;5065868;28;20686;-70
2021/03/17 05:05:15;;;;;;;70.78;45.85;;;;;;;1.99;70.82;99994.50;5066950;28;20516;-68
2021/03/17 05:07:43;;;;;;;70.97;43.25;;;;;;;2.05;70.69;99995.09;5064316;28;20067;-68
2021/03/17 05:10:11;;;;;;;62.65;36.85;;;;;;;2.09;70.36;100001.88;5065774;28;20631;-68
2021/03/17 05:12:39;;;;;;;67.10;38.85;;;;;;;2.10;70.16;100000.94;5048949;28;20050;-68
2021/03/17 05:15:09;;;;;;;65.63;41.88;;;;;;;2.12;70.17;100007.84;5066114;28;20048;-68
2021/03/17 05:17:38;;;;;;;70.03;40.20;;;;;;;2.12;70.50;100005.25;5065875;28;20049;-67
2021/03/17 05:20:07;;;;;;;69.00;35.33;;;;;;;2.17;70.36;100003.31;5066434;28;20052;-69
2021/03/17 05:22:35;;;;;;;77.05;43.00;;;;;;;2.17;70.31;100000.69;5065993;28;20063;-67
2021/03/17 05:25:05;;;;;;;47.15;32.55;;;;;;;2.15;69.63;100002.53;5067689;28;20753;-69
2021/03/17 05:27:34;;;;;;;44.88;30.40;;;;;;;2.16;69.75;100004.19;5066071;28;20090;-68
2021/03/17 05:30:04;;;;;;;45.70;24.95;;;;;;;2.23;69.53;100001.28;5065276;28;20420;-67
2021/03/17 05:32:32;;;;;;;56.75;29.67;;;;;;;2.33;69.27;99996.53;5067526;28;20045;-70
2021/03/17 05:35:01;;;;;;;44.88;25.90;;;;;;;2.44;68.85;99996.06;5065869;28;20051;-71
2021/03/17 05:37:29;;;;;;;44.60;27.67;;;;;;;2.42;68.45;100008.31;5064434;28;20261;-69
2021/03/17 05:39:56;;;;;;;39.63;24.00;;;;;;;2.29;68.31;100002.78;5055401;28;20055;-73
2021/03/17 05:42:24;;;;;;;41.85;25.50;;;;;;;2.29;68.56;100003.63;5068802;28;20063;-72
2021/03/17 05:44:52;;;;;;;38.63;26.15;;;;;;;2.31;68.58;100007.94;5069806;28;20109;-71
2021/03/17 05:47:20;;;;;;;39.55;24.75;;;;;;;2.37;68.39;100016.31;5072484;28;20045;-70
2021/03/17 05:49:48;;;;;;;39.42;22.70;;;;;;;2.43;68.44;100008.25;5074319;28;20067;-66
2021/03/17 05:52:17;;;;;;;39.47;23.88;;;;;;;2.46;68.18;100018.53;5050866;28;20063;-72
2021/03/17 05:54:45;;;;;;;37.47;23.77;;;;;;;2.40;67.91;100016.22;5049354;28;20048;-65
2021/03/17 05:57:14;;;;;;;37.42;22.23;;;;;;;2.36;68.53;100022.47;5067737;28;20722;-68
2021/03/17 05:59:40;;;;;;;36.97;23.73;;;;;;;2.39;68.32;100021.47;5067648;28;20048;-70
2021/03/17 06:02:09;;;;;;;39.03;23.20;;;;;;;2.51;68.03;100020.13;5066718;28;20631;-70
2021/03/17 06:04:40;;;;;;;37.92;23.13;;;;;;;2.55;67.47;100029.50;5063872;28;20056;-62
2021/03/17 06:07:11;;;;;;;33.38;24.63;;;;;;;2.52;67.45;100021.78;5060746;28;20053;-69
2021/03/17 06:09:39;;;;;;;37.53;21.08;;;;;;;2.51;67.20;100033.16;5012322;28;20040;-64
2021/03/17 06:12:10;;;;;;;37.47;20.75;;;;;;;2.60;67.37;100024.94;5061008;28;20053;-69
2021/03/17 06:14:37;;;;;;;37.95;22.55;;;;;;;2.65;67.13;100030.81;5061350;28;20052;-64
2021/03/17 06:17:11;;;;;;;35.88;25.05;;;;;;;2.60;67.04;100030.16;5063737;28;20045;-70
2021/03/17 06:19:40;;;;;;;45.35;25.83;;;;;;;2.53;67.50;100026.94;5062210;28;20044;-64
2021/03/17 06:22:08;;;;;;;32.55;22.15;;;;;;;2.48;67.25;100036.72;5060399;28;20055;-68
2021/03/17 06:24:35;;;;;;;32.33;20.63;;;;;;;2.46;67.37;100039.38;5064194;28;20132;-65
2021/03/17 06:27:03;;;;;;;35.40;22.52;;;;;;;2.57;67.49;100044.16;5059423;28;20058;-65
2021/03/17 06:29:30;;;;;;;31.13;19.63;;;;;;;2.63;66.89;100040.47;5060597;28;20084;-65
2021/03/17 06:31:57;;;;;;;30.77;22.50;;;;;;;2.63;66.74;100045.66;5062553;28;20056;-66
2021/03/17 06:34:23;;;;;;;31.40;17.13;;;;;;;2.64;66.64;100055.16;5059350;28;20062;-69
2021/03/17 06:36:51;;;;;;;30.15;18.95;;;;;;;2.68;66.66;100061.94;5065722;28;20070;-70
2021/03/17 06:39:20;;;;;;;32.08;20.00;;;;;;;2.75;66.78;100055.53;5063618;28;20063;-72
2021/03/17 06:41:52;;;;;;;30.88;19.33;;;;;;;2.72;66.65;100066.13;5063003;28;20060;-73
2021/03/17 06:44:20;;;;;;;30.00;16.65;;;;;;;2.68;66.60;100073.25;5068386;28;20459;-71
2021/03/17 06:47:11;;;;;;;32.10;19.90;;;;;;;2.78;66.34;100072.84;5072572;28;20128;-72
2021/03/17 06:49:39;;;;;;;27.80;18.92;;;;;;;2.74;65.83;100073.88;5062830;28;20044;-72
2021/03/17 06:52:30;;;;;;;26.70;18.88;;;;;;;2.77;66.35;100076.34;5067262;28;20257;-71
2021/03/17 06:55:14;;;;;;;29.05;19.20;;;;;;;2.76;66.45;100083.34;5064133;28;20684;-73
2021/03/17 06:57:42;;;;;;;30.98;18.65;;;;;;;2.77;66.19;100081.56;5062230;28;20052;-70
2021/03/17 07:00:34;;;;;;;25.20;18.45;;;;;;;2.84;66.23;100083.84;5065547;28;20092;-71
2021/03/17 07:03:03;;;;;;;31.27;17.65;;;;;;;2.88;66.11;100081.94;5063331;28;20044;-71
2021/03/17 07:05:36;;;;;;;32.47;18.85;;;;;;;2.85;66.26;100080.31;5067076;28;20048;-73
2021/03/17 07:08:05;;;;;;;28.20;18.10;;;;;;;2.94;66.12;100076.47;5066157;28;20044;-72
2021/03/17 07:10:37;;;;;;;31.48;18.20;;;;;;;2.94;66.26;100080.84;5062501;28;20139;-71
2021/03/17 07:13:04;;;;;;;30.40;18.52;;;;;;;2.93;66.37;100076.53;5066554;28;20044;-73
2021/03/17 07:15:33;;;;;;;26.85;14.85;;;;;;;3.05;66.11;100083.84;5058760;28;20052;-68
2021/03/17 07:18:21;;;;;;;32.63;19.60;;;;;;;3.04;66.23;100084.72;5062818;28;20080;-71
2021/03/17 07:20:51;;;;;;;32.13;18.95;;;;;;;3.00;66.27;100080.56;5067396;28;20055;-75
2021/03/17 07:23:34;;;;;;;26.95;17.58;;;;;;;3.12;66.18;100085.25;5063311;28;20083;-67
2021/03/17 07:26:17;;;;;;;31.00;19.73;;;;;;;3.09;66.08;100084.53;5042091;28;20061;-72
2021/03/17 07:29:00;;;;;;;40.20;22.00;;;;;;;3.15;66.27;100092.09;5062649;28;20048;-71
2021/03/17 07:31:30;;;;;;;34.33;22.35;;;;;;;3.13;66.40;100093.91;5062407;28;20143;-71
2021/03/17 07:34:10;;;;;;;33.55;21.08;;;;;;;3.13;66.40;100089.53;5060687;28;20060;-71
2021/03/17 07:36:39;;;;;;;30.58;21.05;;;;;;;3.15;66.47;100095.56;5021740;28;20075;-73
2021/03/17 07:39:08;;;;;;;38.38;21.67;;;;;;;3.19;66.26;100091.06;5046366;28;20128;-71
2021/03/17 07:41:38;;;;;;;34.83;24.05;;;;;;;3.27;66.10;100093.31;5063536;28;20201;-75
2021/03/17 07:44:08;;;;;;;33.72;22.45;;;;;;;3.38;66.40;100091.06;5063277;28;20052;-70
2021/03/17 07:46:36;;;;;;;31.40;21.20;;;;;;;3.35;65.90;100093.81;5059335;28;20132;-70
2021/03/17 07:49:06;;;;;;;34.67;20.55;;;;;;;3.42;65.84;100101.31;5083109;28;20189;-70
2021/03/17 07:51:35;;;;;;;38.05;25.27;;;;;;;3.50;65.90;100095.72;5081686;28;20044;-73
2021/03/17 07:54:04;;;;;;;33.33;21.55;;;;;;;3.47;65.85;100095.03;4978028;28;20047;-73
2021/03/17 07:56:31;;;;;;;31.45;18.05;;;;;;;3.53;65.65;100099.94;4982416;28;20084;-70
2021/03/17 07:59:01;;;;;;;34.45;21.65;;;;;;;3.62;65.35;100089.94;4981803;28;20116;-71
2021/03/17 08:01:28;;;;;;;31.48;20.13;;;;;;;3.67;65.29;100094.94;4987157;28;20053;-71
2021/03/17 08:03:56;;;;;;;35.40;20.90;;;;;;;3.61;65.64;100090.84;4997024;28;20116;-71
2021/03/17 08:06:24;;;;;;;26.80;18.38;;;;;;;3.57;65.39;100086.69;4992892;28;20085;-71
2021/03/17 08:08:51;;;;;;;24.98;17.67;;;;;;;3.53;65.36;100090.38;4969161;28;20054;-72
2021/03/17 08:11:19;;;;;;;23.23;14.48;;;;;;;3.49;65.64;100090.56;4939891;28;20054;-70
2021/03/17 08:13:50;;;;;;;23.50;16.67;;;;;;;3.48;65.99;100092.34;5060077;28;20078;-70
2021/03/17 08:16:19;;;;;;;25.45;16.55;;;;;;;3.55;65.65;100098.16;5057725;28;20080;-69
2021/03/17 08:18:49;;;;;;;21.75;13.73;;;;;;;3.56;65.63;100090.22;5056897;28;20056;-69
2021/03/17 08:21:36;;;;;;;25.83;18.05;;;;;;;3.61;65.28;100093.47;5057635;28;20041;-70
2021/03/17 08:24:04;;;;;;;24.38;17.25;;;;;;;3.61;65.17;100088.25;5055967;28;20122;-69
2021/03/17 08:26:44;;;;;;;23.60;15.77;;;;;;;3.62;65.59;100091.72;5056624;28;20060;-74
2021/03/17 08:29:15;;;;;;;19.60;14.43;;;;;;;3.61;65.36;100096.06;5055871;28;20056;-69
2021/03/17 08:31:52;;;;;;;22.73;14.95;;;;;;;3.61;65.22;100103.91;5055159;28;20637;-68
2021/03/17 08:34:28;;;;;;;22.02;13.50;;;;;;;3.64;65.40;100095.94;5060232;28;20089;-72
2021/03/17 08:36:59;;;;;;;22.08;16.23;;;;;;;3.68;64.76;100098.41;5057826;28;20098;-70
2021/03/17 08:39:47;;;;;;;23.42;15.98;;;;;;;3.68;65.17;100093.19;5061994;28;20567;-69
2021/03/17 08:42:29;;;;;;;19.95;13.93;;;;;;;3.76;65.03;100096.28;5058375;28;20171;-69
2021/03/17 08:44:57;;;;;;;23.35;13.13;;;;;;;3.85;64.78;100101.06;5058991;28;20044;-73
2021/03/17 08:47:29;;;;;;;20.40;14.32;;;;;;;3.89;64.26;100102.66;5057018;28;20930;-68
2021/03/17 08:50:15;;;;;;;19.13;13.68;;;;;;;3.92;63.86;100099.84;5043138;28;20047;-70
2021/03/17 08:52:44;;;;;;;20.75;15.05;;;;;;;3.96;63.66;100104.03;5015323;28;20288;-70
2021/03/17 08:55:19;;;;;;;16.40;11.48;;;;;;;3.97;63.83;100100.50;5064024;28;20072;-72
2021/03/17 08:57:49;;;;;;;;;;;;;;;4.17;63.25;100101.31;5063765;28;20052;-68
2021/03/17 09:00:52;;;;;;;23.23;15.60;;;;;;;4.03;63.72;100104.56;5063149;28;19920;-73
2021/03/17 09:03:45;;;;;;;26.60;17.48;;;;;;;4.05;63.61;100101.91;5067930;28;20129;-77
2021/03/17 09:06:17;;;;;;;16.35;10.70;;;;;;;4.09;63.71;100112.16;5070072;28;20049;-76
2021/03/17 09:09:18;;;;;;;22.58;12.15;;;;;;;4.17;63.57;100114.38;5068741;28;20055;-78
2021/03/17 09:11:57;;;;;;;19.38;11.95;;;;;;;4.19;63.20;100104.69;5067454;28;20102;-75
2021/03/17 09:14:29;;;;;;;20.88;15.43;;;;;;;4.15;63.14;100113.63;5068161;28;20108;-74
2021/03/17 09:17:20;;;;;;;15.48;11.77;;;;;;;4.15;63.33;100113.63;5067031;28;20071;-76
2021/03/17 09:20:09;;;;;;;18.25;12.35;;;;;;;4.19;63.01;100116.00;5067200;28;20044;-71
2021/03/17 09:23:01;;;;;;;24.95;15.25;;;;;;;4.21;62.88;100118.53;5065782;28;20066;-72
2021/03/17 09:25:30;;;;;;;18.15;12.43;;;;;;;4.26;62.48;100121.78;5065154;28;20178;-73
2021/03/17 09:28:02;;;;;;;20.70;15.35;;;;;;;4.28;62.69;100125.16;5068294;28;20302;-73
2021/03/17 09:30:42;;;;;;;16.77;10.10;;;;;;;4.44;62.10;100124.44;5061844;28;20614;-72
2021/03/17 09:33:13;;;;;;;18.40;10.80;;;;;;;4.50;61.86;100118.88;5070506;28;20091;-75
2021/03/17 09:35:40;;;;;;;22.33;13.05;;;;;;;4.50;61.25;100124.09;5046261;28;20131;-74
2021/03/17 09:38:09;;;;;;;16.48;11.50;;;;;;;4.38;61.20;100121.19;5061676;28;20053;-71
2021/03/17 09:40:39;;;;;;;14.70;9.82;;;;;;;4.37;61.40;100129.09;5063420;28;20080;-73
2021/03/17 09:43:23;;;;;;;21.42;13.20;;;;;;;4.39;61.66;100122.03;5060891;28;20807;-72
2021/03/17 09:45:49;;;;;;;17.25;11.15;;;;;;;4.50;61.08;100113.66;5056805;28;20110;-72
2021/03/17 09:48:17;;;;;;;15.48;11.20;;;;;;;4.63;60.90;100119.97;5061711;28;20091;-74
2021/03/17 09:50:44;;;;;;;11.10;9.73;;;;;;;4.73;60.33;100110.72;5059959;28;20037;-73
2021/03/17 09:53:13;;;;;;;13.68;11.18;;;;;;;4.93;59.52;100121.94;5058911;28;20207;-71
2021/03/17 09:55:40;;;;;;;12.43;9.45;;;;;;;5.09;59.24;100112.38;5064014;28;20053;-74
2021/03/17 09:58:09;;;;;;;15.27;8.98;;;;;;;5.24;58.74;100115.13;5062473;28;20160;-73
2021/03/17 10:00:37;;;;;;;11.98;8.70;;;;;;;5.25;58.72;100112.44;5061089;28;20108;-75
2021/03/17 10:03:11;;;;;;;12.63;10.27;;;;;;;5.33;58.66;100119.88;5064977;28;20052;-76
2021/03/17 10:05:38;;;;;;;16.58;10.38;;;;;;;5.25;58.80;100111.59;5061084;28;20114;-74
2021/03/17 10:08:05;;;;;;;16.45;11.07;;;;;;;5.25;58.58;100117.66;5058634;28;20053;-74
2021/03/17 10:10:31;;;;;;;12.57;8.68;;;;;;;5.32;58.42;100126.06;5061490;28;20049;-73
2021/03/17 10:12:58;;;;;;;12.07;9.85;;;;;;;5.41;57.78;100117.69;5060598;28;20056;-73
2021/03/17 10:15:27;;;;;;;12.65;10.20;;;;;;;5.34;57.47;100124.19;5059959;28;20048;-74
2021/03/17 10:17:57;;;;;;;12.55;8.77;;;;;;;5.37;57.67;100121.41;5062068;28;20036;-73
2021/03/17 10:20:26;;;;;;;12.82;9.48;;;;;;;5.41;57.32;100129.97;5063063;28;20083;-76
2021/03/17 10:23:01;;;;;;;10.82;8.93;;;;;;;5.45;57.15;100115.78;5068646;28;20230;-77
2021/03/17 10:25:34;;;;;;;10.02;8.90;;;;;;;5.51;56.78;100124.16;5067915;28;20055;-73
2021/03/17 10:28:04;;;;;;;12.57;8.93;;;;;;;5.62;56.13;100113.09;5025858;28;20106;-73
2021/03/17 10:30:34;;;;;;;11.48;6.63;;;;;;;5.67;56.37;100115.44;5061438;28;20643;-73
2021/03/17 10:33:02;;;;;;;13.20;9.13;;;;;;;5.90;55.91;100130.75;5062235;28;20286;-73
2021/03/17 10:35:29;;;;;;;15.10;7.95;;;;;;;6.06;54.45;100122.94;5065235;28;20055;-76
2021/03/17 10:37:57;;;;;;;8.75;6.38;;;;;;;6.15;54.35;100118.13;5065435;28;20125;-72
2021/03/17 10:40:25;;;;;;;16.95;8.38;;;;;;;6.09;54.50;100119.31;5064950;28;20060;-76
2021/03/17 10:42:55;;;;;;;13.52;7.55;;;;;;;6.06;54.88;100116.84;5063263;28;20062;-71
2021/03/17 10:45:24;;;;;;;9.48;7.72;;;;;;;6.08;54.96;100114.97;5045035;28;20508;-72
2021/03/17 10:47:53;;;;;;;13.10;8.00;;;;;;;5.98;54.16;100111.16;5077149;28;20045;-73
2021/03/17 10:50:29;;;;;;;9.93;7.40;;;;;;;5.88;54.55;100113.44;5066633;28;20044;-73
2021/03/17 10:52:57;;;;;;;11.13;6.93;;;;;;;5.97;54.50;100114.75;5087158;28;20048;-73
2021/03/17 10:55:25;;;;;;;10.23;8.23;;;;;;;6.00;54.45;100106.72;5086331;28;20522;-75
2021/03/17 10:57:53;;;;;;;11.30;8.40;;;;;;;5.97;54.33;100112.97;5086360;28;20052;-73
2021/03/17 11:00:26;;;;;;;11.27;7.80;;;;;;;5.88;54.28;100111.66;5080992;28;20270;-73
2021/03/17 11:02:54;;;;;;;11.15;7.55;;;;;;;5.98;54.20;100117.28;5084034;28;20093;-75
2021/03/17 11:05:28;;;;;;;10.32;7.72;;;;;;;6.09;53.98;100103.56;5083513;28;20043;-74
2021/03/17 11:08:06;;;;;;;10.25;8.05;;;;;;;6.09;53.72;100103.56;5081078;28;20155;-74
2021/03/17 11:10:46;;;;;;;10.80;8.05;;;;;;;6.03;53.93;100106.53;5082720;28;20055;-71
2021/03/17 11:13:37;;;;;;;12.27;8.43;;;;;;;5.92;54.49;100109.72;5063643;28;20044;-73
2021/03/17 11:16:15;;;;;;;12.68;8.30;;;;;;;5.98;54.23;100105.94;5062299;28;20105;-73
2021/03/17 11:18:47;;;;;;;11.15;7.85;;;;;;;6.01;53.84;100106.59;5042864;28;20124;-72
2021/03/17 11:21:21;;;;;;;12.63;8.25;;;;;;;6.00;54.06;100098.84;5037559;28;20041;-73
2021/03/17 11:23:48;;;;;;;9.15;7.32;;;;;;;6.05;54.00;100102.03;5040159;28;20163;-77
2021/03/17 11:26:23;;;;;;;11.55;7.03;;;;;;;6.10;54.29;100100.88;5038276;28;20662;-73
2021/03/17 11:28:53;;;;;;;11.43;7.40;;;;;;;6.16;54.26;100107.53;5037515;28;20049;-72
2021/03/17 11:31:37;;;;;;;12.18;7.88;;;;;;;6.39;53.86;100103.63;5037147;28;20477;-71
2021/03/17 11:34:08;;;;;;;11.60;6.82;;;;;;;6.58;52.97;100106.00;5038002;28;20045;-72
2021/03/17 11:36:36;;;;;;;9.68;7.45;;;;;;;6.69;52.95;100108.00;5038288;28;20076;-73
2021/03/17 11:39:05;;;;;;;10.13;6.40;;;;;;;6.69;52.85;100100.97;5047980;28;20044;-72